createdAt,value
2022-08-11T00:00:38.050Z,1018.05
2022-08-11T00:01:38.037Z,1018.05
2022-08-11T00:02:38.352Z,1018.03
2022-08-11T00:03:43.318Z,1018.05
2022-08-11T00:04:38.016Z,1018.04
2022-08-11T00:05:37.982Z,1018.04
2022-08-11T00:06:38.015Z,1018.03
2022-08-11T00:07:37.967Z,1018.05
2022-08-11T00:08:37.971Z,1018.04
2022-08-11T00:09:39.091Z,1018.03
2022-08-11T00:10:37.949Z,1018.02
2022-08-11T00:11:37.941Z,1018.02
2022-08-11T00:12:38.134Z,1018.00
2022-08-11T00:13:37.889Z,1018.00
2022-08-11T00:14:38.103Z,1018.00
2022-08-11T00:15:37.894Z,1017.99
2022-08-11T00:16:37.889Z,1018.00
2022-08-11T00:17:37.859Z,1017.99
2022-08-11T00:18:37.867Z,1018.00
2022-08-11T00:20:11.733Z,1018.01
2022-08-11T00:20:37.849Z,1018.00
2022-08-11T00:22:04.290Z,1018.01
2022-08-11T00:22:38.067Z,1018.00
2022-08-11T00:23:37.790Z,1018.00
2022-08-11T00:24:52.054Z,1018.00
2022-08-11T00:25:37.788Z,1018.00
2022-08-11T00:26:37.791Z,1018.00
2022-08-11T00:27:37.747Z,1018.00
2022-08-11T00:28:37.755Z,1018.00
2022-08-11T00:29:38.029Z,1018.01
2022-08-11T00:30:37.751Z,1018.01
2022-08-11T00:31:37.707Z,1018.01
2022-08-11T00:32:37.909Z,1018.02
2022-08-11T00:33:44.157Z,1018.02
2022-08-11T00:34:37.700Z,1018.04
2022-08-11T00:35:54.283Z,1018.05
2022-08-11T00:36:37.671Z,1018.06
2022-08-11T00:37:37.660Z,1018.07
2022-08-11T00:38:37.653Z,1018.07
2022-08-11T00:39:37.681Z,1018.08
2022-08-11T00:40:37.619Z,1018.09
2022-08-11T00:41:37.633Z,1018.09
2022-08-11T00:42:37.840Z,1018.10
2022-08-11T00:43:37.579Z,1018.08
2022-08-11T00:44:37.584Z,1018.07
2022-08-11T00:45:37.569Z,1018.06
2022-08-11T00:46:37.577Z,1018.04
2022-08-11T00:47:37.551Z,1018.03
2022-08-11T00:48:37.582Z,1018.02
2022-08-11T00:49:37.557Z,1018.03
2022-08-11T00:50:37.561Z,1018.03
2022-08-11T00:52:02.205Z,1018.03
2022-08-11T00:52:37.572Z,1018.04
2022-08-11T00:53:37.492Z,1018.05
2022-08-11T00:54:37.475Z,1018.05
2022-08-11T00:55:37.486Z,1018.06
2022-08-11T00:56:37.468Z,1018.05
2022-08-11T00:57:38.549Z,1018.05
2022-08-11T00:58:37.461Z,1018.06
2022-08-11T00:59:37.442Z,1018.06
2022-08-11T01:00:37.458Z,1018.06
2022-08-11T01:01:37.419Z,1018.07
2022-08-11T01:02:37.501Z,1018.07
2022-08-11T01:03:37.383Z,1018.08
2022-08-11T01:04:37.405Z,1018.09
2022-08-11T01:05:37.373Z,1018.10
2022-08-11T01:06:37.358Z,1018.11
2022-08-11T01:08:02.049Z,1018.11
2022-08-11T01:08:37.352Z,1018.11
2022-08-11T01:09:37.311Z,1018.10
2022-08-11T01:10:37.319Z,1018.09
2022-08-11T01:11:37.312Z,1018.08
2022-08-11T01:12:37.463Z,1018.06
2022-08-11T01:13:37.294Z,1018.06
2022-08-11T01:14:37.280Z,1018.05
2022-08-11T01:15:37.257Z,1018.05
2022-08-11T01:16:37.257Z,1018.05
2022-08-11T01:17:37.242Z,1018.05
2022-08-11T01:18:37.254Z,1018.06
2022-08-11T01:20:44.938Z,1018.07
2022-08-11T01:20:50.897Z,1018.07
2022-08-11T01:21:37.205Z,1018.07
2022-08-11T01:22:37.358Z,1018.06
2022-08-11T01:23:37.168Z,1018.06
2022-08-11T01:24:37.184Z,1018.05
2022-08-11T01:25:57.081Z,1018.04
2022-08-11T01:26:37.159Z,1018.05
2022-08-11T01:27:37.137Z,1018.05
2022-08-11T01:28:37.151Z,1018.04
2022-08-11T01:29:37.133Z,1018.04
2022-08-11T01:30:37.113Z,1018.04
2022-08-11T01:31:37.082Z,1018.05
2022-08-11T01:32:37.231Z,1018.06
2022-08-11T01:33:37.078Z,1018.06
2022-08-11T01:34:37.118Z,1018.06
2022-08-11T01:35:37.404Z,1018.05
2022-08-11T01:36:37.049Z,1018.07
2022-08-11T01:37:37.029Z,1018.07
2022-08-11T01:38:37.030Z,1018.05
2022-08-11T01:39:37.088Z,1018.05
2022-08-11T01:40:37.013Z,1018.06
2022-08-11T01:41:36.998Z,1018.06
2022-08-11T01:42:37.266Z,1018.07
2022-08-11T01:43:36.961Z,1018.06
2022-08-11T01:44:36.975Z,1018.07
2022-08-11T01:45:36.966Z,1018.08
2022-08-11T01:46:36.945Z,1018.07
2022-08-11T01:47:36.919Z,1018.06
2022-08-11T01:48:36.924Z,1018.06
2022-08-11T01:50:07.892Z,1018.07
2022-08-11T01:50:36.928Z,1018.07
2022-08-11T01:51:36.887Z,1018.08
2022-08-11T01:52:36.882Z,1018.08
2022-08-11T01:53:36.870Z,1018.09
2022-08-11T01:54:36.865Z,1018.09
2022-08-11T01:55:36.853Z,1018.09
2022-08-11T01:56:36.837Z,1018.09
2022-08-11T01:57:36.847Z,1018.10
2022-08-11T01:58:43.575Z,1018.10
2022-08-11T01:59:36.807Z,1018.10
2022-08-11T02:00:36.892Z,1018.12
2022-08-11T02:01:36.794Z,1018.12
2022-08-11T02:02:37.051Z,1018.12
2022-08-11T02:03:36.758Z,1018.11
2022-08-11T02:04:36.773Z,1018.11
2022-08-11T02:05:36.742Z,1018.11
2022-08-11T02:06:36.759Z,1018.11
2022-08-11T02:07:36.720Z,1018.10
2022-08-11T02:08:36.713Z,1018.10
2022-08-11T02:09:36.714Z,1018.09
2022-08-11T02:10:38.386Z,1018.09
2022-08-11T02:11:37.598Z,1018.07
2022-08-11T02:12:36.971Z,1018.06
2022-08-11T02:13:37.214Z,1018.04
2022-08-11T02:14:36.690Z,1018.04
2022-08-11T02:15:36.656Z,1018.03
2022-08-11T02:16:36.629Z,1018.04
2022-08-11T02:17:36.628Z,1018.04
2022-08-11T02:18:36.618Z,1018.04
2022-08-11T02:19:36.596Z,1018.05
2022-08-11T02:20:36.625Z,1018.06
2022-08-11T02:21:36.572Z,1018.07
2022-08-11T02:22:36.835Z,1018.07
2022-08-11T02:24:04.533Z,1018.09
2022-08-11T02:24:36.559Z,1018.10
2022-08-11T02:25:36.535Z,1018.12
2022-08-11T02:26:36.556Z,1018.10
2022-08-11T02:27:36.534Z,1018.10
2022-08-11T02:28:40.249Z,1018.08
2022-08-11T02:29:36.500Z,1018.07
2022-08-11T02:30:36.492Z,1018.06
2022-08-11T02:32:14.856Z,1018.05
2022-08-11T02:32:36.681Z,1018.04
2022-08-11T02:33:36.750Z,1018.04
2022-08-11T02:34:36.450Z,1018.04
2022-08-11T02:35:36.429Z,1018.05
2022-08-11T02:36:36.429Z,1018.05
2022-08-11T02:37:36.410Z,1018.05
2022-08-11T02:38:36.424Z,1018.05
2022-08-11T02:39:36.447Z,1018.04
2022-08-11T02:40:36.381Z,1018.03
2022-08-11T02:41:36.374Z,1018.02
2022-08-11T02:42:36.471Z,1018.01
2022-08-11T02:43:36.369Z,1018.00
2022-08-11T02:44:36.353Z,1018.01
2022-08-11T02:45:36.323Z,1018.01
2022-08-11T02:46:36.337Z,1018.02
2022-08-11T02:47:36.301Z,1018.01
2022-08-11T02:48:36.315Z,1018.04
2022-08-11T02:49:36.324Z,1018.04
2022-08-11T02:50:36.300Z,1018.05
2022-08-11T02:51:36.270Z,1018.06
2022-08-11T02:52:36.370Z,1018.07
2022-08-11T02:53:36.255Z,1018.08
2022-08-11T02:54:36.282Z,1018.08
2022-08-11T02:55:56.347Z,1018.07
2022-08-11T02:56:36.229Z,1018.07
2022-08-11T02:57:36.206Z,1018.06
2022-08-11T02:58:36.202Z,1018.05
2022-08-11T02:59:36.196Z,1018.04
2022-08-11T03:00:36.184Z,1018.04
2022-08-11T03:01:36.243Z,1018.04
2022-08-11T03:02:36.327Z,1018.05
2022-08-11T03:03:36.168Z,1018.07
2022-08-11T03:04:37.637Z,1018.08
2022-08-11T03:05:36.118Z,1018.08
2022-08-11T03:06:36.118Z,1018.09
2022-08-11T03:07:36.113Z,1018.09
2022-08-11T03:08:36.109Z,1018.09
2022-08-11T03:09:36.091Z,1018.09
2022-08-11T03:10:36.087Z,1018.09
2022-08-11T03:11:36.062Z,1018.09
2022-08-11T03:12:36.307Z,1018.11
2022-08-11T03:13:36.076Z,1018.12
2022-08-11T03:14:36.055Z,1018.13
2022-08-11T03:15:36.024Z,1018.13
2022-08-11T03:16:36.029Z,1018.16
2022-08-11T03:17:35.997Z,1018.16
2022-08-11T03:18:36.020Z,1018.17
2022-08-11T03:19:35.997Z,1018.18
2022-08-11T03:20:38.398Z,1018.19
2022-08-11T03:22:01.828Z,1018.18
2022-08-11T03:22:36.167Z,1018.16
2022-08-11T03:23:35.941Z,1018.17
2022-08-11T03:24:35.907Z,1018.16
2022-08-11T03:25:35.936Z,1018.16
2022-08-11T03:26:35.876Z,1018.13
2022-08-11T03:27:35.851Z,1018.11
2022-08-11T03:28:35.850Z,1018.10
2022-08-11T03:29:35.850Z,1018.07
2022-08-11T03:30:35.885Z,1018.05
2022-08-11T03:31:35.886Z,1018.04
2022-08-11T03:32:35.834Z,1018.03
2022-08-11T03:33:35.785Z,1018.02
2022-08-11T03:34:35.799Z,1018.03
2022-08-11T03:35:35.770Z,1018.03
2022-08-11T03:37:15.000Z,1018.03
2022-08-11T03:37:35.753Z,1018.04
2022-08-11T03:38:35.776Z,1018.04
2022-08-11T03:39:35.797Z,1018.03
2022-08-11T03:40:35.737Z,1018.02
2022-08-11T03:42:03.737Z,1018.02
2022-08-11T03:42:35.714Z,1018.03
2022-08-11T03:43:35.681Z,1018.02
2022-08-11T03:44:35.674Z,1018.03
2022-08-11T03:45:40.737Z,1018.03
2022-08-11T03:46:35.667Z,1018.02
2022-08-11T03:47:35.629Z,1018.02
2022-08-11T03:48:35.630Z,1018.02
2022-08-11T03:49:35.630Z,1018.01
2022-08-11T03:50:35.627Z,1018.02
2022-08-11T03:51:44.813Z,1018.00
2022-08-11T03:52:35.601Z,1018.00
2022-08-11T03:53:35.583Z,1018.00
2022-08-11T03:54:35.587Z,1017.99
2022-08-11T03:55:35.566Z,1018.00
2022-08-11T03:56:35.558Z,1018.01
2022-08-11T03:57:35.543Z,1018.02
2022-08-11T03:58:41.162Z,1018.03
2022-08-11T03:59:35.530Z,1018.02
2022-08-11T04:00:35.505Z,1018.02
2022-08-11T04:01:35.561Z,1018.02
2022-08-11T04:02:35.482Z,1018.01
2022-08-11T04:03:35.479Z,1018.00
2022-08-11T04:04:35.498Z,1017.99
2022-08-11T04:05:35.482Z,1017.99
2022-08-11T04:06:35.439Z,1017.99
2022-08-11T04:07:35.473Z,1017.99
2022-08-11T04:08:35.445Z,1018.00
2022-08-11T04:09:35.421Z,1017.99
2022-08-11T04:10:35.423Z,1017.99
2022-08-11T04:11:35.404Z,1017.99
2022-08-11T04:12:37.011Z,1018.00
2022-08-11T04:13:35.374Z,1018.00
2022-08-11T04:14:35.383Z,1018.00
2022-08-11T04:15:35.371Z,1017.99
2022-08-11T04:16:35.352Z,1017.99
2022-08-11T04:17:35.336Z,1017.99
2022-08-11T04:18:35.314Z,1017.98
2022-08-11T04:19:35.324Z,1017.97
2022-08-11T04:20:35.317Z,1017.96
2022-08-11T04:21:35.295Z,1017.94
2022-08-11T04:22:35.284Z,1017.93
2022-08-11T04:24:37.120Z,1017.92
2022-08-11T04:24:48.374Z,1017.92
2022-08-11T04:25:35.284Z,1017.92
2022-08-11T04:26:35.240Z,1017.92
2022-08-11T04:27:37.387Z,1017.92
2022-08-11T04:28:35.225Z,1017.92
2022-08-11T04:29:36.410Z,1017.92
2022-08-11T04:30:35.208Z,1017.93
2022-08-11T04:31:49.562Z,1017.94
2022-08-11T04:32:35.189Z,1017.96
2022-08-11T04:33:35.390Z,1017.97
2022-08-11T04:34:35.169Z,1017.97
2022-08-11T04:35:35.143Z,1017.97
2022-08-11T04:36:35.156Z,1017.97
2022-08-11T04:37:35.207Z,1017.96
2022-08-11T04:38:35.127Z,1017.95
2022-08-11T04:39:35.171Z,1017.94
2022-08-11T04:40:35.101Z,1017.93
2022-08-11T04:41:35.106Z,1017.92
2022-08-11T04:42:35.135Z,1017.91
2022-08-11T04:43:35.081Z,1017.92
2022-08-11T04:44:35.064Z,1017.92
2022-08-11T04:45:35.053Z,1017.94
2022-08-11T04:46:35.043Z,1017.95
2022-08-11T04:47:58.113Z,1017.97
2022-08-11T04:48:35.021Z,1017.98
2022-08-11T04:49:35.009Z,1018.00
2022-08-11T04:50:34.995Z,1018.01
2022-08-11T04:51:35.013Z,1018.00
2022-08-11T04:52:35.943Z,1018.00
2022-08-11T04:53:34.966Z,1018.00
2022-08-11T04:54:34.949Z,1018.00
2022-08-11T04:55:34.942Z,1018.01
2022-08-11T04:56:34.943Z,1018.01
2022-08-11T04:57:34.949Z,1018.01
2022-08-11T04:58:34.912Z,1018.01
2022-08-11T04:59:34.901Z,1018.01
2022-08-11T05:00:34.878Z,1018.02
2022-08-11T05:01:37.386Z,1018.03
2022-08-11T05:02:34.876Z,1018.04
2022-08-11T05:03:34.882Z,1018.05
2022-08-11T05:04:34.844Z,1018.06
2022-08-11T05:05:34.839Z,1018.06
2022-08-11T05:06:34.849Z,1018.07
2022-08-11T05:07:34.823Z,1018.07
2022-08-11T05:08:34.814Z,1018.06
2022-08-11T05:09:34.793Z,1018.07
2022-08-11T05:10:43.187Z,1018.08
2022-08-11T05:11:34.848Z,1018.10
2022-08-11T05:12:34.759Z,1018.11
2022-08-11T05:13:34.765Z,1018.12
2022-08-11T05:14:34.749Z,1018.11
2022-08-11T05:15:42.985Z,1018.12
2022-08-11T05:16:34.739Z,1018.11
2022-08-11T05:17:34.717Z,1018.11
2022-08-11T05:18:34.693Z,1018.11
2022-08-11T05:19:34.699Z,1018.10
2022-08-11T05:20:34.698Z,1018.10
2022-08-11T05:21:44.289Z,1018.11
2022-08-11T05:22:34.662Z,1018.10
2022-08-11T05:23:34.664Z,1018.10
2022-08-11T05:24:34.648Z,1018.09
2022-08-11T05:26:47.541Z,1018.09
2022-08-11T05:26:53.525Z,1018.10
2022-08-11T05:27:34.628Z,1018.11
2022-08-11T05:28:34.596Z,1018.10
2022-08-11T05:29:34.587Z,1018.11
2022-08-11T05:30:34.767Z,1018.12
2022-08-11T05:31:34.579Z,1018.12
2022-08-11T05:32:34.574Z,1018.12
2022-08-11T05:33:34.559Z,1018.11
2022-08-11T05:34:34.529Z,1018.11
2022-08-11T05:36:00.273Z,1018.10
2022-08-11T05:36:34.545Z,1018.10
2022-08-11T05:37:34.539Z,1018.10
2022-08-11T05:38:34.511Z,1018.10
2022-08-11T05:39:36.881Z,1018.09
2022-08-11T05:40:34.469Z,1018.09
2022-08-11T05:41:34.477Z,1018.12
2022-08-11T05:42:34.466Z,1018.13
2022-08-11T05:43:34.443Z,1018.14
2022-08-11T05:44:34.427Z,1018.14
2022-08-11T05:45:58.637Z,1018.15
2022-08-11T05:46:34.410Z,1018.15
2022-08-11T05:47:34.403Z,1018.15
2022-08-11T05:48:34.388Z,1018.14
2022-08-11T05:49:34.395Z,1018.13
2022-08-11T05:50:34.369Z,1018.13
2022-08-11T05:51:34.359Z,1018.14
2022-08-11T05:52:34.431Z,1018.14
2022-08-11T05:53:40.230Z,1018.16
2022-08-11T05:54:34.335Z,1018.18
2022-08-11T05:55:34.311Z,1018.19
2022-08-11T05:56:34.294Z,1018.19
2022-08-11T05:57:49.408Z,1018.17
2022-08-11T05:58:38.234Z,1018.16
2022-08-11T05:59:34.301Z,1018.15
2022-08-11T06:00:34.284Z,1018.15
2022-08-11T06:01:34.330Z,1018.14
2022-08-11T06:02:34.240Z,1018.14
2022-08-11T06:03:34.242Z,1018.15
2022-08-11T06:04:34.211Z,1018.15
2022-08-11T06:05:38.515Z,1018.15
2022-08-11T06:06:34.212Z,1018.15
2022-08-11T06:07:48.564Z,1018.15
2022-08-11T06:08:34.193Z,1018.13
2022-08-11T06:09:34.176Z,1018.12
2022-08-11T06:10:34.159Z,1018.12
2022-08-11T06:11:43.670Z,1018.11
2022-08-11T06:12:34.142Z,1018.11
2022-08-11T06:13:34.140Z,1018.14
2022-08-11T06:14:34.113Z,1018.15
2022-08-11T06:15:34.109Z,1018.16
2022-08-11T06:16:34.096Z,1018.15
2022-08-11T06:17:39.250Z,1018.15
2022-08-11T06:18:34.092Z,1018.13
2022-08-11T06:19:34.070Z,1018.13
2022-08-11T06:20:34.060Z,1018.12
2022-08-11T06:21:34.046Z,1018.13
2022-08-11T06:22:34.036Z,1018.12
2022-08-11T06:23:36.148Z,1018.12
2022-08-11T06:24:34.015Z,1018.13
2022-08-11T06:25:34.009Z,1018.14
2022-08-11T06:26:44.809Z,1018.15
2022-08-11T06:27:33.995Z,1018.16
2022-08-11T06:28:34.005Z,1018.16
2022-08-11T06:29:38.309Z,1018.16
2022-08-11T06:30:33.971Z,1018.17
2022-08-11T06:31:33.935Z,1018.18
2022-08-11T06:32:33.978Z,1018.18
2022-08-11T06:33:33.905Z,1018.19
2022-08-11T06:34:33.910Z,1018.17
2022-08-11T06:35:33.933Z,1018.18
2022-08-11T06:36:33.892Z,1018.17
2022-08-11T06:37:36.476Z,1018.17
2022-08-11T06:38:33.873Z,1018.17
2022-08-11T06:39:33.901Z,1018.17
2022-08-11T06:40:33.875Z,1018.17
2022-08-11T06:41:33.841Z,1018.17
2022-08-11T06:42:33.878Z,1018.16
2022-08-11T06:43:33.803Z,1018.16
2022-08-11T06:44:33.819Z,1018.16
2022-08-11T06:45:33.800Z,1018.16
2022-08-11T06:46:33.781Z,1018.16
2022-08-11T06:47:33.763Z,1018.16
2022-08-11T06:48:33.796Z,1018.17
2022-08-11T06:49:33.748Z,1018.16
2022-08-11T06:50:33.749Z,1018.17
2022-08-11T06:51:33.732Z,1018.17
2022-08-11T06:52:35.886Z,1018.16
2022-08-11T06:53:33.717Z,1018.15
2022-08-11T06:54:33.827Z,1018.15
2022-08-11T06:55:57.349Z,1018.15
2022-08-11T06:56:33.697Z,1018.16
2022-08-11T06:57:33.687Z,1018.16
2022-08-11T06:58:33.687Z,1018.17
2022-08-11T06:59:33.654Z,1018.16
2022-08-11T07:00:33.657Z,1018.17
2022-08-11T07:01:33.712Z,1018.17
2022-08-11T07:02:33.978Z,1018.17
2022-08-11T07:03:33.612Z,1018.17
2022-08-11T07:04:33.622Z,1018.16
2022-08-11T07:05:33.609Z,1018.15
2022-08-11T07:06:50.174Z,1018.14
2022-08-11T07:07:33.582Z,1018.15
2022-08-11T07:08:35.827Z,1018.14
2022-08-11T07:09:33.549Z,1018.14
2022-08-11T07:10:33.565Z,1018.13
2022-08-11T07:11:33.541Z,1018.13
2022-08-11T07:12:33.613Z,1018.14
2022-08-11T07:13:45.127Z,1018.13
2022-08-11T07:14:38.193Z,1018.12
2022-08-11T07:16:10.388Z,1018.10
2022-08-11T07:16:33.511Z,1018.10
2022-08-11T07:17:33.459Z,1018.09
2022-08-11T07:18:33.471Z,1018.10
2022-08-11T07:19:33.452Z,1018.11
2022-08-11T07:20:33.452Z,1018.12
2022-08-11T07:22:00.297Z,1018.13
2022-08-11T07:22:33.457Z,1018.13
2022-08-11T07:23:33.406Z,1018.15
2022-08-11T07:24:34.258Z,1018.14
2022-08-11T07:25:33.383Z,1018.14
2022-08-11T07:26:33.417Z,1018.15
2022-08-11T07:27:35.760Z,1018.13
2022-08-11T07:28:33.373Z,1018.12
2022-08-11T07:29:33.335Z,1018.12
2022-08-11T07:30:33.343Z,1018.13
2022-08-11T07:31:33.381Z,1018.12
2022-08-11T07:32:33.397Z,1018.13
2022-08-11T07:34:07.816Z,1018.13
2022-08-11T07:34:33.308Z,1018.12
2022-08-11T07:35:33.276Z,1018.11
2022-08-11T07:36:33.283Z,1018.10
2022-08-11T07:37:33.266Z,1018.08
2022-08-11T07:38:33.242Z,1018.08
2022-08-11T07:39:33.418Z,1018.06
2022-08-11T07:40:33.237Z,1018.05
2022-08-11T07:41:33.221Z,1018.04
2022-08-11T07:42:33.285Z,1018.03
2022-08-11T07:43:33.189Z,1018.03
2022-08-11T07:44:35.277Z,1018.04
2022-08-11T07:45:33.191Z,1018.03
2022-08-11T07:46:33.174Z,1018.03
2022-08-11T07:47:33.171Z,1018.03
2022-08-11T07:48:33.150Z,1018.03
2022-08-11T07:49:33.160Z,1018.03
2022-08-11T07:50:33.151Z,1018.03
2022-08-11T07:51:33.130Z,1018.02
2022-08-11T07:52:33.151Z,1018.02
2022-08-11T07:53:33.121Z,1018.01
2022-08-11T07:54:33.618Z,1017.99
2022-08-11T07:55:50.891Z,1017.98
2022-08-11T07:56:38.572Z,1017.98
2022-08-11T07:57:51.466Z,1017.98
2022-08-11T07:58:44.896Z,1017.98
2022-08-11T07:59:59.841Z,1017.96
2022-08-11T08:00:33.029Z,1017.93
2022-08-11T08:01:33.140Z,1017.92
2022-08-11T08:02:33.065Z,1017.91
2022-08-11T08:03:33.015Z,1017.90
2022-08-11T08:04:32.987Z,1017.90
2022-08-11T08:05:32.995Z,1017.89
2022-08-11T08:06:36.358Z,1017.89
2022-08-11T08:07:32.994Z,1017.90
2022-08-11T08:08:32.962Z,1017.91
2022-08-11T08:09:32.952Z,1017.92
2022-08-11T08:10:32.929Z,1017.93
2022-08-11T08:11:32.929Z,1017.92
2022-08-11T08:12:32.998Z,1017.93
2022-08-11T08:13:32.897Z,1017.94
2022-08-11T08:14:32.906Z,1017.93
2022-08-11T08:15:32.887Z,1017.93
2022-08-11T08:16:32.869Z,1017.94
2022-08-11T08:17:32.858Z,1017.95
2022-08-11T08:18:32.866Z,1017.93
2022-08-11T08:19:32.875Z,1017.94
2022-08-11T08:20:32.827Z,1017.96
2022-08-11T08:21:32.821Z,1017.96
2022-08-11T08:22:38.244Z,1017.95
2022-08-11T08:23:32.975Z,1017.95
2022-08-11T08:24:32.802Z,1017.95
2022-08-11T08:25:32.778Z,1017.95
2022-08-11T08:26:32.770Z,1017.95
2022-08-11T08:27:32.764Z,1017.94
2022-08-11T08:28:32.962Z,1017.94
2022-08-11T08:29:32.771Z,1017.94
2022-08-11T08:30:32.725Z,1017.93
2022-08-11T08:31:32.730Z,1017.92
2022-08-11T08:32:32.830Z,1017.93
2022-08-11T08:33:32.708Z,1017.93
2022-08-11T08:34:33.643Z,1017.93
2022-08-11T08:35:33.272Z,1017.93
2022-08-11T08:36:32.692Z,1017.94
2022-08-11T08:37:46.761Z,1017.95
2022-08-11T08:38:32.653Z,1017.95
2022-08-11T08:39:32.731Z,1017.96
2022-08-11T08:40:32.638Z,1017.98
2022-08-11T08:41:32.635Z,1018.00
2022-08-11T08:42:32.722Z,1017.99
2022-08-11T08:43:32.607Z,1018.00
2022-08-11T08:44:39.188Z,1017.99
2022-08-11T08:45:32.602Z,1017.98
2022-08-11T08:46:32.590Z,1018.01
2022-08-11T08:47:41.505Z,1018.03
2022-08-11T08:48:32.565Z,1018.03
2022-08-11T08:49:32.550Z,1018.03
2022-08-11T08:50:32.546Z,1018.04
2022-08-11T08:51:54.568Z,1018.05
2022-08-11T08:52:35.934Z,1018.03
2022-08-11T08:53:32.526Z,1018.02
2022-08-11T08:54:32.482Z,1018.00
2022-08-11T08:55:32.512Z,1018.00
2022-08-11T08:56:32.480Z,1017.99
2022-08-11T08:57:32.479Z,1017.99
2022-08-11T08:58:32.467Z,1017.98
2022-08-11T08:59:48.016Z,1017.97
2022-08-11T09:00:32.444Z,1017.97
2022-08-11T09:01:32.471Z,1017.96
2022-08-11T09:02:33.789Z,1017.97
2022-08-11T09:04:06.814Z,1017.96
2022-08-11T09:04:32.411Z,1017.95
2022-08-11T09:05:32.385Z,1017.96
2022-08-11T09:06:32.385Z,1017.97
2022-08-11T09:07:39.116Z,1017.98
2022-08-11T09:08:32.364Z,1017.98
2022-08-11T09:09:32.357Z,1017.98
2022-08-11T09:10:32.331Z,1017.97
2022-08-11T09:11:32.338Z,1017.96
2022-08-11T09:12:38.616Z,1017.95
2022-08-11T09:13:32.326Z,1017.95
2022-08-11T09:14:32.301Z,1017.94
2022-08-11T09:15:32.318Z,1017.92
2022-08-11T09:16:32.294Z,1017.93
2022-08-11T09:17:32.291Z,1017.92
2022-08-11T09:18:33.782Z,1017.91
2022-08-11T09:19:32.250Z,1017.91
2022-08-11T09:20:32.234Z,1017.91
2022-08-11T09:21:44.649Z,1017.91
2022-08-11T09:22:32.235Z,1017.90
2022-08-11T09:24:32.195Z,1017.87
2022-08-11T09:25:32.196Z,1017.86
2022-08-11T09:26:32.169Z,1017.88
2022-08-11T09:27:32.179Z,1017.86
2022-08-11T09:28:32.157Z,1017.88
2022-08-11T09:29:32.160Z,1017.87
2022-08-11T09:30:32.133Z,1017.86
2022-08-11T09:31:35.825Z,1017.85
2022-08-11T09:32:32.110Z,1017.83
2022-08-11T09:33:32.143Z,1017.81
2022-08-11T09:34:32.096Z,1017.82
2022-08-11T09:35:32.106Z,1017.82
2022-08-11T09:36:32.088Z,1017.83
2022-08-11T09:37:54.456Z,1017.82
2022-08-11T09:38:32.088Z,1017.81
2022-08-11T09:39:32.118Z,1017.83
2022-08-11T09:40:32.441Z,1017.83
2022-08-11T09:42:01.156Z,1017.82
2022-08-11T09:42:32.028Z,1017.80
2022-08-11T09:43:32.024Z,1017.80
2022-08-11T09:44:32.017Z,1017.80
2022-08-11T09:45:40.180Z,1017.79
2022-08-11T09:46:31.983Z,1017.77
2022-08-11T09:47:31.978Z,1017.78
2022-08-11T09:48:31.958Z,1017.74
2022-08-11T09:49:31.964Z,1017.73
2022-08-11T09:50:31.948Z,1017.73
2022-08-11T09:51:31.944Z,1017.74
2022-08-11T09:52:31.926Z,1017.72
2022-08-11T09:53:36.642Z,1017.73
2022-08-11T09:54:31.933Z,1017.74
2022-08-11T09:55:31.922Z,1017.73
2022-08-11T09:56:31.893Z,1017.74
2022-08-11T09:57:31.872Z,1017.74
2022-08-11T09:58:41.621Z,1017.72
2022-08-11T09:59:31.863Z,1017.71
2022-08-11T10:00:31.837Z,1017.69
2022-08-11T10:01:31.947Z,1017.68
2022-08-11T10:02:31.815Z,1017.65
2022-08-11T10:03:31.812Z,1017.62
2022-08-11T10:04:31.797Z,1017.60
2022-08-11T10:05:31.821Z,1017.59
2022-08-11T10:06:33.225Z,1017.60
2022-08-11T10:07:31.774Z,1017.63
2022-08-11T10:08:31.785Z,1017.63
2022-08-11T10:09:31.759Z,1017.61
2022-08-11T10:10:31.741Z,1017.59
2022-08-11T10:11:31.760Z,1017.58
2022-08-11T10:12:31.727Z,1017.57
2022-08-11T10:14:32.011Z,1017.60
2022-08-11T10:14:43.968Z,1017.57
2022-08-11T10:15:31.717Z,1017.56
2022-08-11T10:16:31.704Z,1017.54
2022-08-11T10:17:31.686Z,1017.55
2022-08-11T10:18:31.686Z,1017.55
2022-08-11T10:19:31.656Z,1017.54
2022-08-11T10:20:31.644Z,1017.54
2022-08-11T10:21:31.647Z,1017.52
2022-08-11T10:22:32.834Z,1017.51
2022-08-11T10:23:31.625Z,1017.52
2022-08-11T10:24:31.597Z,1017.50
2022-08-11T10:25:31.592Z,1017.51
2022-08-11T10:26:32.066Z,1017.48
2022-08-11T10:28:16.857Z,1017.43
2022-08-11T10:28:44.662Z,1017.41
2022-08-11T10:29:36.902Z,1017.45
2022-08-11T10:30:31.543Z,1017.42
2022-08-11T10:31:43.825Z,1017.43
2022-08-11T10:32:31.720Z,1017.47
2022-08-11T10:33:37.645Z,1017.44
2022-08-11T10:34:31.505Z,1017.45
2022-08-11T10:35:31.515Z,1017.44
2022-08-11T10:36:31.484Z,1017.42
2022-08-11T10:38:06.183Z,1017.41
2022-08-11T10:38:31.457Z,1017.39
2022-08-11T10:39:31.489Z,1017.41
2022-08-11T10:40:31.434Z,1017.39
2022-08-11T10:41:31.433Z,1017.39
2022-08-11T10:42:56.838Z,1017.39
2022-08-11T10:44:02.976Z,1017.38
2022-08-11T10:44:31.427Z,1017.42
2022-08-11T10:45:31.385Z,1017.42
2022-08-11T10:46:31.415Z,1017.40
2022-08-11T10:47:31.402Z,1017.36
2022-08-11T10:48:31.374Z,1017.34
2022-08-11T10:49:31.344Z,1017.33
2022-08-11T10:50:31.351Z,1017.29
2022-08-11T10:51:50.506Z,1017.26
2022-08-11T10:52:31.361Z,1017.24
2022-08-11T10:53:31.320Z,1017.24
2022-08-11T10:54:31.296Z,1017.23
2022-08-11T10:55:31.334Z,1017.22
2022-08-11T10:56:31.323Z,1017.24
2022-08-11T10:57:31.304Z,1017.26
2022-08-11T10:58:31.293Z,1017.24
2022-08-11T10:59:31.290Z,1017.24
2022-08-11T11:00:31.241Z,1017.22
2022-08-11T11:01:31.414Z,1017.20
2022-08-11T11:02:31.246Z,1017.21
2022-08-11T11:03:31.210Z,1017.21
2022-08-11T11:04:31.226Z,1017.21
2022-08-11T11:05:31.208Z,1017.20
2022-08-11T11:06:31.180Z,1017.17
2022-08-11T11:07:31.182Z,1017.19
2022-08-11T11:08:31.173Z,1017.19
2022-08-11T11:09:31.140Z,1017.15
2022-08-11T11:10:31.152Z,1017.15
2022-08-11T11:11:31.135Z,1017.14
2022-08-11T11:12:31.122Z,1017.13
2022-08-11T11:13:31.138Z,1017.08
2022-08-11T11:14:31.106Z,1017.09
2022-08-11T11:15:31.089Z,1017.04
2022-08-11T11:16:31.155Z,1017.14
2022-08-11T11:17:31.068Z,1017.09
2022-08-11T11:18:31.077Z,1017.05
2022-08-11T11:19:31.167Z,1017.03
2022-08-11T11:20:36.781Z,1017.04
2022-08-11T11:21:31.067Z,1017.04
2022-08-11T11:22:31.026Z,1016.99
2022-08-11T11:23:31.014Z,1016.99
2022-08-11T11:24:31.037Z,1017.01
2022-08-11T11:25:30.990Z,1017.00
2022-08-11T11:26:30.994Z,1017.00
2022-08-11T11:27:30.968Z,1016.97
2022-08-11T11:28:30.962Z,1016.99
2022-08-11T11:29:30.967Z,1016.99
2022-08-11T11:30:30.948Z,1016.98
2022-08-11T11:31:30.937Z,1016.95
2022-08-11T11:32:30.943Z,1016.94
2022-08-11T11:33:30.913Z,1016.94
2022-08-11T11:34:30.945Z,1016.94
2022-08-11T11:35:30.889Z,1016.93
2022-08-11T11:36:30.896Z,1016.88
2022-08-11T11:37:30.869Z,1016.85
2022-08-11T11:38:30.881Z,1016.85
2022-08-11T11:39:30.930Z,1016.85
2022-08-11T11:40:31.953Z,1016.84
2022-08-11T11:41:30.849Z,1016.86
2022-08-11T11:42:30.830Z,1016.80
2022-08-11T11:43:30.812Z,1016.79
2022-08-11T11:44:30.826Z,1016.77
2022-08-11T11:45:30.801Z,1016.78
2022-08-11T11:46:30.795Z,1016.78
2022-08-11T11:47:30.774Z,1016.80
2022-08-11T11:48:30.788Z,1016.78
2022-08-11T11:49:30.757Z,1016.75
2022-08-11T11:50:31.572Z,1016.72
2022-08-11T11:51:30.728Z,1016.73
2022-08-11T11:52:30.733Z,1016.73
2022-08-11T11:53:30.703Z,1016.71
2022-08-11T11:54:30.708Z,1016.70
2022-08-11T11:55:30.704Z,1016.71
2022-08-11T11:56:30.729Z,1016.66
2022-08-11T11:57:30.704Z,1016.65
2022-08-11T11:58:30.675Z,1016.63
2022-08-11T11:59:30.657Z,1016.63
2022-08-11T12:00:33.319Z,1016.63
2022-08-11T12:01:30.644Z,1016.61
2022-08-11T12:02:30.629Z,1016.60
2022-08-11T12:03:30.706Z,1016.57
2022-08-11T12:04:30.626Z,1016.57
2022-08-11T12:05:30.595Z,1016.57
2022-08-11T12:06:30.620Z,1016.56